Open Full Screen Window  High Contrast Mode
August 22, 2017 3:50 AM PDT
Weather Information
Wind Direction
  ---
Wind Speed
  00 kt (0 mph)
Wind Gust
  00 kt (0 mph)
Altimeter
30.02 in
Visibility
10 SM
Temperature
13° C
55° F
Dewpoint
10° C
50° F
Humidity
82%
1hr Rain Fall
00.00 in.
24hr Rain Fall
00.00 in.
Sky Condition
Clear
VFR

METAR KCVH 221050Z AUTO 00000KT 10SM CLR 13/10 A3002 RMK AO1

*Background is not an actual portrayal of the airport.